Time;durP1;ratioP1;P1;durP2;ratioP2;P2;SDS_P1;SDS_P2;PMS_P1;PMS_P2;Temp;Humidity;BMP_temperature;BMP_pressure;BME280_temperature;BME280_humidity;BME280_pressure;Samples;Min_cycle;Max_cycle;Signal;HPM_P1;HPM_P2
2023/03/03 00:02:09;;;;;;;43.00;25.77;;;;;;;;;;5104934;28;20211;-68
2023/03/03 00:04:35;;;;;;;44.30;26.13;;;;;;;;;;5105187;28;20641;-68
2023/03/03 00:07:02;;;;;;;44.30;26.52;;;;;;;;;;5104796;28;20437;-68
2023/03/03 00:09:28;;;;;;;47.10;26.98;;;;;;;;;;5105120;28;20403;-68
2023/03/03 00:11:57;;;;;;;43.40;26.95;;;;;;;;;;5104722;28;20214;-68
2023/03/03 00:14:25;;;;;;;45.70;26.92;;;;;;;;;;5097055;28;20219;-68
2023/03/03 00:16:52;;;;;;;48.40;27.65;;;;;;;;;;5104653;28;20263;-68
2023/03/03 00:19:20;;;;;;;44.60;26.63;;;;;;;;;;5104560;28;20222;-68
2023/03/03 00:21:47;;;;;;;45.47;26.17;;;;;;;;;;5104821;28;20245;-68
2023/03/03 00:24:21;;;;;;;43.50;26.70;;;;;;;;;;5104449;28;20241;-68
2023/03/03 00:26:48;;;;;;;45.63;26.42;;;;;;;;;;5104520;28;20203;-68
2023/03/03 00:29:27;;;;;;;43.30;25.17;;;;;;;;;;5103227;28;20286;-69
2023/03/03 00:31:53;;;;;;;45.03;26.05;;;;;;;;;;5104443;28;20229;-68
2023/03/03 00:34:24;;;;;;;43.50;26.65;;;;;;;;;;5104247;28;20257;-69
2023/03/03 00:36:52;;;;;;;42.45;25.83;;;;;;;;;;5104195;28;20221;-68
2023/03/03 00:39:21;;;;;;;41.40;24.95;;;;;;;;;;5104376;28;20223;-68
2023/03/03 00:41:48;;;;;;;43.38;25.85;;;;;;;;;;5104437;28;20199;-68
2023/03/03 00:44:31;;;;;;;40.97;25.88;;;;;;;;;;5104364;28;20192;-68
2023/03/03 00:47:01;;;;;;;43.00;25.65;;;;;;;;;;5103997;28;20499;-68
2023/03/03 00:49:27;;;;;;;47.22;27.38;;;;;;;;;;5103996;28;20199;-68
2023/03/03 00:51:54;;;;;;;49.85;27.63;;;;;;;;;;5104445;28;20200;-68
2023/03/03 00:54:20;;;;;;;48.42;27.65;;;;;;;;;;5103998;28;20406;-68
2023/03/03 00:56:46;;;;;;;40.97;25.60;;;;;;;;;;5104045;28;20196;-68
2023/03/03 00:59:13;;;;;;;45.80;27.95;;;;;;;;;;5103960;28;20246;-68
2023/03/03 01:01:40;;;;;;;44.63;26.15;;;;;;;;;;5104249;28;20252;-68
2023/03/03 01:04:06;;;;;;;47.35;27.52;;;;;;;;;;5104025;28;20222;-68
2023/03/03 01:06:33;;;;;;;46.42;26.70;;;;;;;;;;5103816;28;20199;-68
2023/03/03 01:08:59;;;;;;;46.00;26.10;;;;;;;;;;5103508;28;20203;-68
2023/03/03 01:11:27;;;;;;;42.50;26.17;;;;;;;;;;5103654;28;20199;-68
2023/03/03 01:13:53;;;;;;;47.70;26.92;;;;;;;;;;5103578;28;20228;-68
2023/03/03 01:16:20;;;;;;;45.35;26.58;;;;;;;;;;5103406;28;20419;-68
2023/03/03 01:18:47;;;;;;;42.38;26.20;;;;;;;;;;5103586;28;20934;-68
2023/03/03 01:21:14;;;;;;;42.85;25.90;;;;;;;;;;5103228;28;20233;-68
2023/03/03 01:23:40;;;;;;;44.50;25.48;;;;;;;;;;5103472;28;20237;-68
2023/03/03 01:26:06;;;;;;;45.67;25.70;;;;;;;;;;5103189;28;20188;-68
2023/03/03 01:28:32;;;;;;;46.22;27.25;;;;;;;;;;5103021;28;20215;-68
2023/03/03 01:31:00;;;;;;;41.20;26.20;;;;;;;;;;5103127;28;20196;-68
2023/03/03 01:33:26;;;;;;;43.45;26.02;;;;;;;;;;5094944;28;20211;-68
2023/03/03 01:35:54;;;;;;;47.92;28.00;;;;;;;;;;5103141;28;20212;-68
2023/03/03 01:38:20;;;;;;;44.78;27.77;;;;;;;;;;5102741;28;20220;-68
2023/03/03 01:40:52;;;;;;;42.95;27.02;;;;;;;;;;5102898;28;20200;-68
2023/03/03 01:43:19;;;;;;;48.92;28.58;;;;;;;;;;5103455;28;20200;-68
2023/03/03 01:46:00;;;;;;;44.65;26.73;;;;;;;;;;5102980;28;20192;-67
2023/03/03 01:48:29;;;;;;;46.30;27.70;;;;;;;;;;5094307;28;20238;-67
2023/03/03 01:50:59;;;;;;;48.70;27.85;;;;;;;;;;5102867;28;20196;-68
2023/03/03 01:53:28;;;;;;;47.40;27.40;;;;;;;;;;5102646;28;20249;-67
2023/03/03 01:55:54;;;;;;;48.55;28.30;;;;;;;;;;5102592;28;20215;-67
2023/03/03 01:58:22;;;;;;;44.35;26.40;;;;;;;;;;5102407;28;20200;-68
2023/03/03 02:00:50;;;;;;;48.97;27.90;;;;;;;;;;5103030;28;20196;-68
2023/03/03 02:03:17;;;;;;;49.05;27.33;;;;;;;;;;5102585;28;20200;-68
2023/03/03 02:05:44;;;;;;;51.15;28.02;;;;;;;;;;5102344;28;20372;-68
2023/03/03 02:08:15;;;;;;;50.63;27.52;;;;;;;;;;5102346;28;20429;-69
2023/03/03 02:10:41;;;;;;;49.90;26.77;;;;;;;;;;5102870;28;20196;-68
2023/03/03 02:13:07;;;;;;;47.75;27.38;;;;;;;;;;5102820;28;20195;-68
2023/03/03 02:15:35;;;;;;;49.53;28.20;;;;;;;;;;5102660;28;20220;-68
2023/03/03 02:18:03;;;;;;;43.40;25.55;;;;;;;;;;5102126;28;20223;-68
2023/03/03 02:20:40;;;;;;;48.33;29.02;;;;;;;;;;5094648;28;20203;-68
2023/03/03 02:23:08;;;;;;;50.25;28.17;;;;;;;;;;5102501;28;20199;-68
2023/03/03 02:25:40;;;;;;;55.15;29.38;;;;;;;;;;5102221;28;20217;-67
2023/03/03 02:28:07;;;;;;;47.80;29.35;;;;;;;;;;5101908;28;20268;-68
2023/03/03 02:30:36;;;;;;;48.85;27.83;;;;;;;;;;5102671;28;20249;-68
2023/03/03 02:33:03;;;;;;;50.53;28.15;;;;;;;;;;5102127;28;20195;-68
2023/03/03 02:35:30;;;;;;;51.17;27.92;;;;;;;;;;5094231;28;20283;-68
2023/03/03 02:37:59;;;;;;;51.83;29.50;;;;;;;;;;5101986;28;20238;-68
2023/03/03 02:40:28;;;;;;;51.05;28.38;;;;;;;;;;5101978;28;20195;-68
2023/03/03 02:42:55;;;;;;;50.95;29.05;;;;;;;;;;5102142;28;20195;-68
2023/03/03 02:45:23;;;;;;;53.40;28.45;;;;;;;;;;5101965;28;20196;-69
2023/03/03 02:47:50;;;;;;;51.75;28.85;;;;;;;;;;5102084;28;20529;-68
2023/03/03 02:50:16;;;;;;;50.72;29.38;;;;;;;;;;5102100;28;20196;-68
2023/03/03 02:52:42;;;;;;;49.17;28.65;;;;;;;;;;5105205;28;20304;-68
2023/03/03 02:55:09;;;;;;;51.20;29.25;;;;;;;;;;5106386;28;20212;-68
2023/03/03 02:57:35;;;;;;;51.05;29.35;;;;;;;;;;5106095;28;20241;-69
2023/03/03 03:00:01;;;;;;;48.85;29.40;;;;;;;;;;5106019;28;20199;-68
2023/03/03 03:02:29;;;;;;;49.35;27.95;;;;;;;;;;5105953;28;20196;-69
2023/03/03 03:04:55;;;;;;;53.00;29.85;;;;;;;;;;5106456;28;20229;-69
2023/03/03 03:07:21;;;;;;;51.97;28.83;;;;;;;;;;5105671;28;20309;-68
2023/03/03 03:09:48;;;;;;;50.45;29.40;;;;;;;;;;5105904;28;20264;-68
2023/03/03 03:12:14;;;;;;;48.38;29.08;;;;;;;;;;5105783;28;20208;-68
2023/03/03 03:14:41;;;;;;;50.33;30.67;;;;;;;;;;5105991;28;20219;-68
2023/03/03 03:17:07;;;;;;;51.17;29.45;;;;;;;;;;5105831;28;20253;-68
2023/03/03 03:19:35;;;;;;;51.53;29.05;;;;;;;;;;5105998;28;20418;-68
2023/03/03 03:22:01;;;;;;;48.15;29.15;;;;;;;;;;5105961;28;20202;-69
2023/03/03 03:24:27;;;;;;;46.33;28.58;;;;;;;;;;5105644;28;20204;-68
2023/03/03 03:26:53;;;;;;;50.35;29.00;;;;;;;;;;5105356;28;20233;-68
2023/03/03 03:29:19;;;;;;;50.88;28.70;;;;;;;;;;5106009;28;20207;-68
2023/03/03 03:31:46;;;;;;;46.78;28.25;;;;;;;;;;5105822;28;20200;-69
2023/03/03 03:34:12;;;;;;;48.97;29.25;;;;;;;;;;5105625;28;20195;-68
2023/03/03 03:36:39;;;;;;;56.17;28.67;;;;;;;;;;5105316;28;20211;-68
2023/03/03 03:39:06;;;;;;;48.70;27.98;;;;;;;;;;5105565;28;20200;-68
2023/03/03 03:41:32;;;;;;;47.72;29.63;;;;;;;;;;5105338;28;20429;-68
2023/03/03 03:43:58;;;;;;;51.00;28.95;;;;;;;;;;5105659;28;20196;-69
2023/03/03 03:46:24;;;;;;;50.90;29.45;;;;;;;;;;5105293;28;20196;-68
2023/03/03 03:48:51;;;;;;;53.00;29.85;;;;;;;;;;5105267;28;20241;-68
2023/03/03 03:51:17;;;;;;;52.42;30.30;;;;;;;;;;5105193;28;20269;-68
2023/03/03 03:53:45;;;;;;;52.42;28.60;;;;;;;;;;5105117;28;20195;-68
2023/03/03 03:56:11;;;;;;;51.58;28.75;;;;;;;;;;5104649;28;20223;-69
2023/03/03 03:58:37;;;;;;;52.15;28.88;;;;;;;;;;5104892;28;20238;-68
2023/03/03 04:01:04;;;;;;;52.15;30.70;;;;;;;;;;5104912;28;20196;-69
2023/03/03 04:03:31;;;;;;;54.30;29.55;;;;;;;;;;5104542;28;20547;-68
2023/03/03 04:05:57;;;;;;;48.50;29.55;;;;;;;;;;5104942;28;20265;-68
2023/03/03 04:08:23;;;;;;;48.05;29.38;;;;;;;;;;5104506;28;20207;-68
2023/03/03 04:10:51;;;;;;;51.83;29.95;;;;;;;;;;5104713;28;20195;-68
2023/03/03 04:13:17;;;;;;;49.85;30.10;;;;;;;;;;5104752;28;20207;-68
2023/03/03 04:15:43;;;;;;;49.97;30.52;;;;;;;;;;5104765;28;20531;-69
2023/03/03 04:18:09;;;;;;;48.50;28.08;;;;;;;;;;5104620;28;20200;-68
2023/03/03 04:20:36;;;;;;;50.92;30.08;;;;;;;;;;5104588;28;20200;-68
2023/03/03 04:23:02;;;;;;;50.08;29.17;;;;;;;;;;5104395;28;20196;-68
2023/03/03 04:25:28;;;;;;;51.88;29.73;;;;;;;;;;5104349;28;20195;-68
2023/03/03 04:27:56;;;;;;;49.70;29.13;;;;;;;;;;5104372;28;20220;-68
2023/03/03 04:30:22;;;;;;;52.85;30.42;;;;;;;;;;5104350;28;20508;-68
2023/03/03 04:32:48;;;;;;;50.55;29.60;;;;;;;;;;5104601;28;20503;-68
2023/03/03 04:35:15;;;;;;;53.92;30.73;;;;;;;;;;5104182;28;20242;-68
2023/03/03 04:37:41;;;;;;;52.95;30.05;;;;;;;;;;5103985;28;20199;-68
2023/03/03 04:40:08;;;;;;;48.30;29.60;;;;;;;;;;5104481;28;20195;-68
2023/03/03 04:42:34;;;;;;;52.38;30.73;;;;;;;;;;5104285;28;20196;-68
2023/03/03 04:45:02;;;;;;;49.72;30.35;;;;;;;;;;5104222;28;20214;-68
2023/03/03 04:47:28;;;;;;;58.33;32.90;;;;;;;;;;5103800;28;20200;-69
2023/03/03 04:49:54;;;;;;;57.28;31.65;;;;;;;;;;5104019;28;20431;-68
2023/03/03 04:52:21;;;;;;;56.50;35.17;;;;;;;;;;5104251;28;20200;-68
2023/03/03 04:54:47;;;;;;;60.40;32.95;;;;;;;;;;5104086;28;20241;-68
2023/03/03 04:57:13;;;;;;;51.25;30.00;;;;;;;;;;5103565;28;20394;-68
2023/03/03 04:59:39;;;;;;;52.63;31.40;;;;;;;;;;5103926;28;20620;-68
2023/03/03 05:02:07;;;;;;;53.75;31.10;;;;;;;;;;5103737;28;20234;-69
2023/03/03 05:04:33;;;;;;;55.30;31.15;;;;;;;;;;5103555;28;20195;-68
2023/03/03 05:07:00;;;;;;;54.40;31.77;;;;;;;;;;5103356;28;20234;-68
2023/03/03 05:09:26;;;;;;;51.47;30.60;;;;;;;;;;5103636;28;20208;-68
2023/03/03 05:11:52;;;;;;;57.20;30.35;;;;;;;;;;5103688;28;20195;-68
2023/03/03 05:14:18;;;;;;;54.42;32.05;;;;;;;;;;5103219;28;20200;-68
2023/03/03 05:16:45;;;;;;;63.55;34.75;;;;;;;;;;5103327;28;20219;-68
2023/03/03 05:19:13;;;;;;;54.55;31.20;;;;;;;;;;5104114;28;20210;-68
2023/03/03 05:21:41;;;;;;;264.60;98.93;;;;;;;;;;5095464;28;20252;-68
2023/03/03 05:24:07;;;;;;;95.28;43.35;;;;;;;;;;5103287;28;20196;-68
2023/03/03 05:26:33;;;;;;;64.85;33.85;;;;;;;;;;5103532;28;20200;-68
2023/03/03 05:28:59;;;;;;;59.72;31.88;;;;;;;;;;5103057;28;20215;-68
2023/03/03 05:31:26;;;;;;;58.97;32.45;;;;;;;;;;5103215;28;20237;-69
2023/03/03 05:33:52;;;;;;;61.03;32.70;;;;;;;;;;5103370;28;20226;-68
2023/03/03 05:36:20;;;;;;;58.80;31.50;;;;;;;;;;5103003;28;20219;-68
2023/03/03 05:38:46;;;;;;;54.25;31.73;;;;;;;;;;5103070;28;20196;-68
2023/03/03 05:41:12;;;;;;;57.53;32.88;;;;;;;;;;5103290;28;20253;-68
2023/03/03 05:43:38;;;;;;;53.53;31.50;;;;;;;;;;5103087;28;20548;-68
2023/03/03 05:46:05;;;;;;;58.63;32.03;;;;;;;;;;5103005;28;20204;-70
2023/03/03 05:48:31;;;;;;;58.08;32.72;;;;;;;;;;5102632;28;20200;-70
2023/03/03 05:50:58;;;;;;;54.67;32.33;;;;;;;;;;5103087;28;20199;-70
2023/03/03 05:53:25;;;;;;;51.97;30.05;;;;;;;;;;5102821;28;20208;-70
2023/03/03 05:55:52;;;;;;;52.00;30.15;;;;;;;;;;5102804;28;20220;-70
2023/03/03 05:58:18;;;;;;;52.35;29.92;;;;;;;;;;5102363;28;20211;-70
2023/03/03 06:00:44;;;;;;;54.03;30.90;;;;;;;;;;5102745;28;20199;-70
2023/03/03 06:03:10;;;;;;;51.10;31.35;;;;;;;;;;5102626;28;20199;-70
2023/03/03 06:05:37;;;;;;;57.25;31.75;;;;;;;;;;5102578;28;20215;-70
2023/03/03 06:08:03;;;;;;;53.10;30.73;;;;;;;;;;5102710;28;20433;-70
2023/03/03 06:10:31;;;;;;;58.47;32.60;;;;;;;;;;5102271;28;20199;-70
2023/03/03 06:12:57;;;;;;;54.88;31.15;;;;;;;;;;5102393;28;20241;-70
2023/03/03 06:15:24;;;;;;;54.38;30.42;;;;;;;;;;5102057;28;20241;-70
2023/03/03 06:17:50;;;;;;;54.45;31.45;;;;;;;;;;5101945;28;20195;-70
2023/03/03 06:20:16;;;;;;;56.40;32.15;;;;;;;;;;5102389;28;20368;-70
2023/03/03 06:22:43;;;;;;;48.63;28.80;;;;;;;;;;5102181;28;20196;-70
2023/03/03 06:25:09;;;;;;;53.50;30.10;;;;;;;;;;5102120;28;20368;-70
2023/03/03 06:27:37;;;;;;;55.45;30.15;;;;;;;;;;5101004;28;20224;-70
2023/03/03 06:30:03;;;;;;;57.95;30.58;;;;;;;;;;5102462;28;20285;-70
2023/03/03 06:32:30;;;;;;;53.42;30.33;;;;;;;;;;5101870;28;20226;-70
2023/03/03 06:34:56;;;;;;;54.97;30.77;;;;;;;;;;5101778;28;20195;-70
2023/03/03 06:37:22;;;;;;;52.03;28.63;;;;;;;;;;5101691;28;20268;-70
2023/03/03 06:39:50;;;;;;;53.75;29.45;;;;;;;;;;5101825;28;20196;-70
2023/03/03 06:42:17;;;;;;;49.80;28.65;;;;;;;;;;5101919;28;20413;-70
2023/03/03 06:44:45;;;;;;;54.85;29.98;;;;;;;;;;5101800;28;20199;-70
2023/03/03 06:47:11;;;;;;;59.10;29.50;;;;;;;;;;5101698;28;20191;-70
2023/03/03 06:49:37;;;;;;;51.10;30.55;;;;;;;;;;5101851;28;20204;-70
2023/03/03 06:52:11;;;;;;;59.47;32.75;;;;;;;;;;5102033;28;20386;-70
2023/03/03 06:54:37;;;;;;;69.95;34.60;;;;;;;;;;5101966;28;20199;-70
2023/03/03 06:57:08;;;;;;;68.63;33.58;;;;;;;;;;5101774;28;20215;-70
2023/03/03 06:59:34;;;;;;;62.80;32.97;;;;;;;;;;5101941;28;20245;-70
2023/03/03 07:02:02;;;;;;;66.07;33.83;;;;;;;;;;5102212;28;20233;-70
2023/03/03 07:04:29;;;;;;;56.53;31.15;;;;;;;;;;5101781;28;20200;-70
2023/03/03 07:06:57;;;;;;;61.88;32.85;;;;;;;;;;5102121;28;20253;-70
2023/03/03 07:09:24;;;;;;;56.00;31.92;;;;;;;;;;5101590;28;20243;-70
2023/03/03 07:11:51;;;;;;;63.22;32.53;;;;;;;;;;5101706;28;20488;-70
2023/03/03 07:14:18;;;;;;;56.33;32.42;;;;;;;;;;5101741;28;20241;-70
2023/03/03 07:16:44;;;;;;;53.72;31.20;;;;;;;;;;5093438;28;20538;-70
2023/03/03 07:19:17;;;;;;;58.83;33.05;;;;;;;;;;5101892;28;20257;-70
2023/03/03 07:21:43;;;;;;;59.88;33.78;;;;;;;;;;5101567;28;20427;-70
2023/03/03 07:24:16;;;;;;;56.05;31.48;;;;;;;;;;5101578;28;20257;-70
2023/03/03 07:26:42;;;;;;;47.65;30.00;;;;;;;;;;5075990;28;20378;-69
2023/03/03 07:29:16;;;;;;;56.25;32.90;;;;;;;;;;5088071;28;20228;-69
2023/03/03 07:31:45;;;;;;;52.65;31.90;;;;;;;;;;5093513;28;20257;-69
2023/03/03 07:34:17;;;;;;;54.65;32.85;;;;;;;;;;5092464;28;20203;-70
2023/03/03 07:36:43;;;;;;;60.00;33.17;;;;;;;;;;5089256;28;20223;-70
2023/03/03 07:39:18;;;;;;;61.70;33.08;;;;;;;;;;5097437;28;20246;-69
2023/03/03 07:41:45;;;;;;;64.07;34.10;;;;;;;;;;5098104;28;20218;-70
2023/03/03 07:44:17;;;;;;;62.03;33.97;;;;;;;;;;5097555;28;20217;-70
2023/03/03 07:46:44;;;;;;;62.63;32.22;;;;;;;;;;5097515;28;20211;-70
2023/03/03 07:49:21;;;;;;;59.95;32.65;;;;;;;;;;5097991;28;20246;-70
2023/03/03 07:51:48;;;;;;;58.08;31.95;;;;;;;;;;5097043;28;20269;-70
2023/03/03 07:54:24;;;;;;;54.30;30.25;;;;;;;;;;5098399;28;20473;-70
2023/03/03 07:56:50;;;;;;;58.63;31.95;;;;;;;;;;5092784;28;20426;-70
2023/03/03 07:59:20;;;;;;;61.90;31.42;;;;;;;;;;5098348;28;20438;-70
2023/03/03 08:01:48;;;;;;;57.13;31.45;;;;;;;;;;5098170;28;20227;-70
2023/03/03 08:04:21;;;;;;;51.70;29.75;;;;;;;;;;5098163;28;20265;-70
2023/03/03 08:06:49;;;;;;;52.05;27.63;;;;;;;;;;5097050;28;20204;-69
2023/03/03 08:09:30;;;;;;;44.63;26.85;;;;;;;;;;5097244;28;20663;-70
2023/03/03 08:11:59;;;;;;;43.80;25.48;;;;;;;;;;5089937;28;20558;-70
2023/03/03 08:14:27;;;;;;;48.05;26.70;;;;;;;;;;5097999;28;20234;-70
2023/03/03 08:16:53;;;;;;;45.35;27.10;;;;;;;;;;5097356;28;20224;-70
2023/03/03 08:19:21;;;;;;;50.78;28.08;;;;;;;;;;5098559;28;20531;-70
2023/03/03 08:21:47;;;;;;;48.08;28.30;;;;;;;;;;5098089;28;20532;-70
2023/03/03 08:24:13;;;;;;;49.90;27.63;;;;;;;;;;5097689;28;20227;-70
2023/03/03 08:26:39;;;;;;;52.33;29.33;;;;;;;;;;5097850;28;20253;-70
2023/03/03 08:29:06;;;;;;;51.13;28.75;;;;;;;;;;5097635;28;20310;-70
2023/03/03 08:31:32;;;;;;;54.00;29.98;;;;;;;;;;5097809;28;20219;-70
2023/03/03 08:33:58;;;;;;;48.47;28.25;;;;;;;;;;5097590;28;20455;-71
2023/03/03 08:36:26;;;;;;;50.58;26.27;;;;;;;;;;5096793;28;20232;-70
2023/03/03 08:38:52;;;;;;;50.28;27.50;;;;;;;;;;5097167;28;20215;-70
2023/03/03 08:41:18;;;;;;;48.28;27.70;;;;;;;;;;5097522;28;20212;-70
2023/03/03 08:43:48;;;;;;;45.33;26.80;;;;;;;;;;5098113;28;20223;-73
2023/03/03 08:46:15;;;;;;;44.28;27.27;;;;;;;;;;5097605;28;20261;-73
2023/03/03 08:48:41;;;;;;;48.25;26.38;;;;;;;;;;5097249;28;20538;-73
2023/03/03 08:51:07;;;;;;;50.17;26.90;;;;;;;;;;5096927;28;20261;-73
2023/03/03 08:53:37;;;;;;;48.42;27.55;;;;;;;;;;5097291;28;20231;-73
2023/03/03 08:56:03;;;;;;;48.88;26.92;;;;;;;;;;5097119;28;20204;-73
2023/03/03 08:58:29;;;;;;;43.65;26.10;;;;;;;;;;5096935;28;20235;-73
2023/03/03 09:00:57;;;;;;;42.58;26.23;;;;;;;;;;5097457;28;20246;-72
2023/03/03 09:03:24;;;;;;;45.53;26.27;;;;;;;;;;5098121;28;20246;-72
2023/03/03 09:05:50;;;;;;;47.53;25.70;;;;;;;;;;5097202;28;20265;-73
2023/03/03 09:08:16;;;;;;;48.25;27.50;;;;;;;;;;5087150;28;20496;-73
2023/03/03 09:10:44;;;;;;;49.53;27.27;;;;;;;;;;5084770;28;20411;-75
2023/03/03 09:13:13;;;;;;;45.92;27.27;;;;;;;;;;5088120;28;20523;-73
2023/03/03 09:15:39;;;;;;;47.53;26.67;;;;;;;;;;5087543;28;20211;-73
2023/03/03 09:18:10;;;;;;;45.35;26.95;;;;;;;;;;5085437;28;20224;-73
2023/03/03 09:20:38;;;;;;;47.28;26.42;;;;;;;;;;5085674;28;20231;-73
2023/03/03 09:23:21;;;;;;;45.63;25.98;;;;;;;;;;5085939;28;20209;-73
2023/03/03 09:25:49;;;;;;;47.72;26.90;;;;;;;;;;5076475;28;20204;-73
2023/03/03 09:28:21;;;;;;;44.63;27.48;;;;;;;;;;5083437;28;20215;-73
2023/03/03 09:30:48;;;;;;;45.53;27.95;;;;;;;;;;5085904;28;20257;-74
2023/03/03 09:33:25;;;;;;;49.80;26.88;;;;;;;;;;5089695;28;20216;-72
2023/03/03 09:35:52;;;;;;;53.72;27.95;;;;;;;;;;5095764;28;20215;-72
2023/03/03 09:38:25;;;;;;;49.88;28.27;;;;;;;;;;5095190;28;20266;-72
2023/03/03 09:41:01;;;;;;;46.70;29.05;;;;;;;;;;5096329;28;20239;-72
2023/03/03 09:43:30;;;;;;;46.58;27.42;;;;;;;;;;5096340;28;20525;-72
2023/03/03 09:46:01;;;;;;;46.90;26.15;;;;;;;;;;5096577;28;20195;-72
2023/03/03 09:48:42;;;;;;;53.65;28.63;;;;;;;;;;5096198;28;20436;-72
2023/03/03 09:51:13;;;;;;;43.78;26.83;;;;;;;;;;5096734;28;20211;-72
2023/03/03 09:53:50;;;;;;;43.17;26.58;;;;;;;;;;5093362;28;20447;-72
2023/03/03 09:56:21;;;;;;;45.78;27.65;;;;;;;;;;5095633;28;20211;-72
2023/03/03 09:58:59;;;;;;;49.22;27.00;;;;;;;;;;5095614;28;20212;-72
2023/03/03 10:01:34;;;;;;;49.03;27.05;;;;;;;;;;5096536;28;20564;-72
2023/03/03 10:07:11;;;;;;;48.83;27.50;;;;;;;;;;5095081;28;20402;-73
2023/03/03 10:09:45;;;;;;;53.40;28.45;;;;;;;;;;5095767;28;20811;-72
2023/03/03 10:12:18;;;;;;;48.13;28.25;;;;;;;;;;5095174;28;20218;-72
2023/03/03 10:14:56;;;;;;;49.65;27.98;;;;;;;;;;5095865;28;20272;-72
2023/03/03 10:17:27;;;;;;;48.22;28.65;;;;;;;;;;5095672;28;20294;-72
2023/03/03 10:20:03;;;;;;;44.17;27.60;;;;;;;;;;5096222;28;20215;-72
2023/03/03 10:22:34;;;;;;;46.88;27.55;;;;;;;;;;5095327;28;20207;-72
2023/03/03 10:25:10;;;;;;;45.28;26.83;;;;;;;;;;5095214;28;20215;-72
2023/03/03 10:27:47;;;;;;;52.20;28.40;;;;;;;;;;5095474;28;20264;-72
2023/03/03 10:30:17;;;;;;;45.92;28.15;;;;;;;;;;5096212;28;20207;-72
2023/03/03 10:32:47;;;;;;;47.72;28.65;;;;;;;;;;5095832;28;20494;-73
2023/03/03 10:35:28;;;;;;;41.95;26.90;;;;;;;;;;5095591;28;20208;-72
2023/03/03 10:38:09;;;;;;;42.85;27.92;;;;;;;;;;5091896;28;20269;-72
2023/03/03 10:40:38;;;;;;;48.63;28.48;;;;;;;;;;5095801;28;20211;-72
2023/03/03 10:43:16;;;;;;;41.85;27.20;;;;;;;;;;5095252;28;20212;-72
2023/03/03 10:45:50;;;;;;;44.30;26.85;;;;;;;;;;5088870;28;20267;-73
2023/03/03 10:48:31;;;;;;;47.35;27.75;;;;;;;;;;5081379;28;20244;-73
2023/03/03 10:51:02;;;;;;;48.40;28.38;;;;;;;;;;5075517;28;20203;-73
2023/03/03 10:53:31;;;;;;;48.15;27.23;;;;;;;;;;5094775;28;20215;-73
2023/03/03 10:56:04;;;;;;;45.80;28.08;;;;;;;;;;5094312;28;20534;-72
2023/03/03 10:58:48;;;;;;;51.80;28.45;;;;;;;;;;5077266;28;20228;-72
2023/03/03 11:01:21;;;;;;;48.58;27.70;;;;;;;;;;5094969;28;20523;-72
2023/03/03 11:04:05;;;;;;;48.92;28.60;;;;;;;;;;5095745;28;20215;-72
2023/03/03 11:06:38;;;;;;;44.25;28.30;;;;;;;;;;5092367;28;20211;-72
2023/03/03 11:09:09;;;;;;;46.85;27.55;;;;;;;;;;5095293;28;20216;-72
2023/03/03 11:11:41;;;;;;;49.08;27.60;;;;;;;;;;5096430;28;20253;-73
2023/03/03 11:14:12;;;;;;;46.08;29.38;;;;;;;;;;5098556;28;20390;-72
2023/03/03 11:16:47;;;;;;;46.22;26.63;;;;;;;;;;5098602;28;20523;-72
2023/03/03 11:19:29;;;;;;;46.67;28.30;;;;;;;;;;5099402;28;20214;-72
2023/03/03 11:22:00;;;;;;;47.53;27.17;;;;;;;;;;5086021;28;20590;-72
2023/03/03 11:24:31;;;;;;;40.50;25.95;;;;;;;;;;5098746;28;20218;-73
2023/03/03 11:27:12;;;;;;;43.55;27.08;;;;;;;;;;5098676;28;20217;-72
2023/03/03 11:29:44;;;;;;;44.10;27.02;;;;;;;;;;5098980;28;20768;-72
2023/03/03 11:32:19;;;;;;;42.97;27.50;;;;;;;;;;5099138;28;20518;-72
2023/03/03 11:34:50;;;;;;;42.83;28.02;;;;;;;;;;5098816;28;20218;-73
2023/03/03 11:37:22;;;;;;;41.53;28.45;;;;;;;;;;5092708;28;20227;-72
2023/03/03 11:39:49;;;;;;;46.22;27.88;;;;;;;;;;5098764;28;20211;-72
2023/03/03 11:42:21;;;;;;;46.97;27.85;;;;;;;;;;5098517;28;20265;-72
2023/03/03 11:44:49;;;;;;;46.83;28.88;;;;;;;;;;5099269;28;20527;-72
2023/03/03 11:47:21;;;;;;;42.22;27.38;;;;;;;;;;5098346;28;20215;-72
2023/03/03 11:49:48;;;;;;;45.00;28.55;;;;;;;;;;5098901;28;20211;-72
2023/03/03 11:52:21;;;;;;;45.50;28.80;;;;;;;;;;5097942;28;20222;-72
2023/03/03 11:54:50;;;;;;;48.97;28.52;;;;;;;;;;5098159;28;20215;-72
2023/03/03 11:57:19;;;;;;;47.90;28.55;;;;;;;;;;5098099;28;20547;-72
2023/03/03 11:59:49;;;;;;;45.05;27.48;;;;;;;;;;5097904;28;20225;-73
2023/03/03 12:02:24;;;;;;;45.88;27.65;;;;;;;;;;5098569;28;20211;-73
2023/03/03 12:04:51;;;;;;;49.45;29.13;;;;;;;;;;5082751;28;20211;-72
2023/03/03 12:07:23;;;;;;;46.22;28.85;;;;;;;;;;5097824;28;20458;-73
2023/03/03 12:09:55;;;;;;;41.53;26.63;;;;;;;;;;5097687;28;20312;-73
2023/03/03 12:12:23;;;;;;;41.80;27.30;;;;;;;;;;5095156;28;20243;-73
2023/03/03 12:14:56;;;;;;;41.70;27.25;;;;;;;;;;5087843;28;20231;-73
2023/03/03 12:17:31;;;;;;;41.13;27.05;;;;;;;;;;5089727;28;20224;-73
2023/03/03 12:20:02;;;;;;;45.22;27.25;;;;;;;;;;5098273;28;20249;-73
2023/03/03 12:22:32;;;;;;;41.38;27.50;;;;;;;;;;5097707;28;20507;-73
2023/03/03 12:25:13;;;;;;;39.35;27.13;;;;;;;;;;5096060;28;20566;-73
2023/03/03 12:27:41;;;;;;;39.15;25.92;;;;;;;;;;5097598;28;20248;-73
2023/03/03 12:30:13;;;;;;;42.83;26.77;;;;;;;;;;5097814;28;20220;-73
2023/03/03 12:32:50;;;;;;;40.28;26.15;;;;;;;;;;5097795;28;20284;-73
2023/03/03 12:35:20;;;;;;;38.22;26.42;;;;;;;;;;5097403;28;20211;-73
2023/03/03 12:37:47;;;;;;;41.55;25.73;;;;;;;;;;5094297;28;20555;-72
2023/03/03 12:40:17;;;;;;;37.35;25.90;;;;;;;;;;5097006;28;20211;-72
2023/03/03 12:42:49;;;;;;;41.83;25.83;;;;;;;;;;5097377;28;20239;-72
2023/03/03 12:45:22;;;;;;;36.20;25.95;;;;;;;;;;5097019;28;20389;-72
2023/03/03 12:47:51;;;;;;;34.15;25.02;;;;;;;;;;5096889;28;20467;-72
2023/03/03 12:50:25;;;;;;;41.13;26.58;;;;;;;;;;5097743;28;20466;-72
2023/03/03 12:52:54;;;;;;;41.08;25.70;;;;;;;;;;5097135;28;20207;-71
2023/03/03 12:55:24;;;;;;;41.78;25.95;;;;;;;;;;5096627;28;20451;-71
2023/03/03 12:57:55;;;;;;;33.60;24.15;;;;;;;;;;5096216;28;20228;-71
2023/03/03 13:00:27;;;;;;;34.63;24.42;;;;;;;;;;5096724;28;20208;-71
2023/03/03 13:02:59;;;;;;;38.03;26.25;;;;;;;;;;5097454;28;20411;-71
2023/03/03 13:05:27;;;;;;;37.67;25.55;;;;;;;;;;5096558;28;20215;-71
2023/03/03 13:08:05;;;;;;;37.70;26.23;;;;;;;;;;5096452;28;20523;-71
2023/03/03 13:10:34;;;;;;;40.00;25.38;;;;;;;;;;5096694;28;20212;-71
2023/03/03 13:13:02;;;;;;;36.30;25.35;;;;;;;;;;5097141;28;20257;-71
2023/03/03 13:15:30;;;;;;;38.17;25.95;;;;;;;;;;5097593;28;20249;-71
2023/03/03 13:18:02;;;;;;;35.38;23.75;;;;;;;;;;5097555;28;20223;-71
2023/03/03 13:20:32;;;;;;;34.13;24.13;;;;;;;;;;5097734;28;20583;-72
2023/03/03 13:23:04;;;;;;;35.53;24.08;;;;;;;;;;5096540;28;20523;-71
2023/03/03 13:25:45;;;;;;;36.88;25.13;;;;;;;;;;5096856;28;20218;-71
2023/03/03 13:28:13;;;;;;;35.83;24.25;;;;;;;;;;5094381;28;20445;-71
2023/03/03 13:30:55;;;;;;;41.13;23.55;;;;;;;;;;5097550;28;20212;-71
2023/03/03 13:33:26;;;;;;;36.95;23.83;;;;;;;;;;5096483;28;20257;-71
2023/03/03 13:35:53;;;;;;;33.33;23.98;;;;;;;;;;5088144;28;20204;-72
2023/03/03 13:38:21;;;;;;;35.45;23.98;;;;;;;;;;5083909;28;20295;-72
2023/03/03 13:40:50;;;;;;;34.35;22.17;;;;;;;;;;5083310;28;20204;-73
2023/03/03 13:43:18;;;;;;;33.45;23.15;;;;;;;;;;5079263;28;20235;-73
2023/03/03 13:45:50;;;;;;;34.38;23.27;;;;;;;;;;5088274;28;20196;-73
2023/03/03 13:48:24;;;;;;;33.30;22.02;;;;;;;;;;5096707;28;20211;-72
2023/03/03 13:50:53;;;;;;;31.98;23.50;;;;;;;;;;5096282;28;20233;-71
2023/03/03 13:53:31;;;;;;;38.88;23.75;;;;;;;;;;5096169;28;20218;-71
2023/03/03 13:55:59;;;;;;;32.20;22.65;;;;;;;;;;5095904;28;20429;-71
2023/03/03 13:58:33;;;;;;;33.17;23.02;;;;;;;;;;5095461;28;20534;-72
2023/03/03 14:01:01;;;;;;;30.70;22.40;;;;;;;;;;5095328;28;20207;-72
2023/03/03 14:03:35;;;;;;;34.70;23.48;;;;;;;;;;5096140;28;20204;-72
2023/03/03 14:06:04;;;;;;;32.45;22.70;;;;;;;;;;5095312;28;20409;-72
2023/03/03 14:08:41;;;;;;;33.58;24.00;;;;;;;;;;5095445;28;20231;-72
2023/03/03 14:11:09;;;;;;;39.70;23.25;;;;;;;;;;5096141;28;20246;-71
2023/03/03 14:13:40;;;;;;;33.22;23.05;;;;;;;;;;5096274;28;20288;-72
2023/03/03 14:16:10;;;;;;;36.80;23.40;;;;;;;;;;5095849;28;20307;-72
2023/03/03 14:18:39;;;;;;;32.10;21.48;;;;;;;;;;5087819;28;20223;-71
2023/03/03 14:21:08;;;;;;;28.27;21.80;;;;;;;;;;5095280;28;20210;-71
2023/03/03 14:23:45;;;;;;;29.77;21.67;;;;;;;;;;5095443;28;20211;-71
2023/03/03 14:26:12;;;;;;;31.88;23.30;;;;;;;;;;5094616;28;20218;-71
2023/03/03 14:28:39;;;;;;;32.42;21.80;;;;;;;;;;5095711;28;20247;-71
2023/03/03 14:31:14;;;;;;;33.60;22.17;;;;;;;;;;5095597;28;20265;-71